Time;durP1;ratioP1;P1;durP2;ratioP2;P2;SDS_P1;SDS_P2;PMS_P1;PMS_P2;Temp;Humidity;BMP_temperature;BMP_pressure;BME280_temperature;BME280_humidity;BME280_pressure;Samples;Min_cycle;Max_cycle;Signal;HPM_P1;HPM_P2
2022/10/22 00:02:06;;;;;;;7.63;4.10;;;;;;;;;;5070343;28;20688;-77
2022/10/22 00:05:11;;;;;;;9.10;4.57;;;;;;;;;;5094295;28;20175;-76
2022/10/22 00:08:15;;;;;;;9.23;4.10;;;;;;;;;;5094154;28;20667;-77
2022/10/22 00:11:19;;;;;;;8.93;3.23;;;;;;;;;;5069806;28;20708;-77
2022/10/22 00:14:23;;;;;;;9.23;2.73;;;;;;;;;;5070115;28;20183;-77
2022/10/22 00:17:28;;;;;;;3.00;2.07;;;;;;;;;;5070207;28;20179;-77
2022/10/22 00:20:32;;;;;;;4.27;2.17;;;;;;;;;;5070193;28;20175;-77
2022/10/22 00:23:40;;;;;;;3.10;2.33;;;;;;;;;;5058385;28;20194;-77
2022/10/22 00:26:44;;;;;;;3.60;2.03;;;;;;;;;;5081073;28;20199;-77
2022/10/22 00:29:48;;;;;;;5.10;2.40;;;;;;;;;;5081668;28;20210;-79
2022/10/22 00:32:52;;;;;;;6.37;2.30;;;;;;;;;;5070502;28;20183;-77
2022/10/22 00:35:56;;;;;;;5.63;2.50;;;;;;;;;;5059261;28;20632;-78
2022/10/22 00:39:01;;;;;;;4.73;2.07;;;;;;;;;;5059499;28;20175;-77
2022/10/22 00:42:05;;;;;;;5.80;2.50;;;;;;;;;;5081437;28;20218;-77
2022/10/22 00:45:09;;;;;;;9.83;2.53;;;;;;;;;;5069868;28;20191;-78
2022/10/22 00:48:23;;;;;;;4.30;2.30;;;;;;;;;;5070645;28;20206;-77
2022/10/22 00:51:30;;;;;;;3.67;2.20;;;;;;;;;;5081069;28;20210;-77
2022/10/22 00:54:34;;;;;;;5.13;2.37;;;;;;;;;;5058518;28;20178;-77
2022/10/22 00:57:39;;;;;;;4.10;2.27;;;;;;;;;;5081567;28;20187;-77
2022/10/22 01:00:43;;;;;;;3.20;2.17;;;;;;;;;;5081163;28;20210;-77
2022/10/22 01:03:48;;;;;;;13.03;2.30;;;;;;;;;;5069598;28;20183;-78
2022/10/22 01:06:52;;;;;;;7.93;2.00;;;;;;;;;;5069773;28;20522;-79
2022/10/22 01:10:24;;;;;;;3.23;2.13;;;;;;;;;;5097696;28;20668;-77
2022/10/22 01:13:40;;;;;;;3.87;2.07;;;;;;;;;;5097621;28;20660;-77
2022/10/22 01:17:02;;;;;;;3.87;2.13;;;;;;;;;;5073780;28;20179;-77
2022/10/22 01:20:38;;;;;;;5.67;1.97;;;;;;;;;;5086142;28;20175;-79
2022/10/22 01:23:45;;;;;;;7.93;2.30;;;;;;;;;;5063204;28;20183;-78
2022/10/22 01:27:06;;;;;;;4.30;2.03;;;;;;;;;;5086466;28;20178;-77
2022/10/22 01:30:12;;;;;;;3.60;2.07;;;;;;;;;;5085990;28;20215;-80
2022/10/22 01:33:18;;;;;;;4.23;2.23;;;;;;;;;;5074222;28;20190;-78
2022/10/22 01:36:24;;;;;;;6.73;2.23;;;;;;;;;;5074577;28;20198;-78
2022/10/22 01:39:30;;;;;;;7.30;2.70;;;;;;;;;;5062844;28;20182;-77
2022/10/22 01:42:34;;;;;;;4.70;2.30;;;;;;;;;;5097683;28;20214;-77
2022/10/22 01:45:46;;;;;;;6.37;2.50;;;;;;;;;;5073658;28;20261;-78
2022/10/22 01:49:04;;;;;;;4.20;2.30;;;;;;;;;;5097809;28;20210;-77
2022/10/22 01:52:21;;;;;;;5.03;2.10;;;;;;;;;;5085542;28;20210;-78
2022/10/22 01:55:45;;;;;;;5.90;2.43;;;;;;;;;;5085764;28;20518;-79
2022/10/22 01:59:05;;;;;;;5.43;2.50;;;;;;;;;;5073954;28;20175;-77
2022/10/22 02:02:12;;;;;;;6.90;2.53;;;;;;;;;;5061655;28;20565;-77
2022/10/22 02:05:27;;;;;;;6.10;2.50;;;;;;;;;;5083560;28;20179;-77
2022/10/22 02:08:34;;;;;;;3.53;2.60;;;;;;;;;;5057258;28;20646;-77
2022/10/22 02:11:40;;;;;;;4.77;2.50;;;;;;;;;;5052714;28;20558;-77
2022/10/22 02:14:47;;;;;;;3.23;2.43;;;;;;;;;;5064208;28;20184;-77
2022/10/22 02:17:54;;;;;;;9.97;3.17;;;;;;;;;;5076427;28;20184;-77
2022/10/22 02:20:59;;;;;;;3.90;2.50;;;;;;;;;;5076761;28;20211;-78
2022/10/22 02:24:03;;;;;;;7.73;2.20;;;;;;;;;;5064885;28;20191;-78
2022/10/22 02:27:10;;;;;;;7.37;2.40;;;;;;;;;;5064656;28;20539;-78
2022/10/22 02:30:20;;;;;;;4.60;2.50;;;;;;;;;;5052596;28;20207;-77
2022/10/22 02:33:34;;;;;;;8.70;2.83;;;;;;;;;;5063752;28;20631;-77
2022/10/22 02:36:40;;;;;;;4.47;2.37;;;;;;;;;;5063952;28;20511;-77
2022/10/22 02:39:45;;;;;;;6.80;2.47;;;;;;;;;;5052772;28;20175;-77
2022/10/22 02:42:50;;;;;;;5.70;2.93;;;;;;;;;;5076076;28;20194;-77
2022/10/22 02:45:54;;;;;;;5.47;2.70;;;;;;;;;;5052376;28;20196;-77
2022/10/22 02:48:58;;;;;;;5.13;2.90;;;;;;;;;;5063413;28;20223;-77
2022/10/22 02:52:02;;;;;;;5.73;2.77;;;;;;;;;;5051733;28;20555;-78
2022/10/22 02:55:07;;;;;;;6.83;3.00;;;;;;;;;;5053656;28;20175;-78
2022/10/22 02:58:12;;;;;;;4.80;3.03;;;;;;;;;;5065138;28;20175;-78
2022/10/22 03:01:16;;;;;;;4.60;3.10;;;;;;;;;;5042374;28;20203;-78
2022/10/22 03:04:21;;;;;;;5.73;3.13;;;;;;;;;;5053588;28;20198;-78
2022/10/22 03:07:25;;;;;;;4.53;2.73;;;;;;;;;;5064991;28;20179;-78
2022/10/22 03:10:29;;;;;;;9.00;3.13;;;;;;;;;;5064875;28;20207;-78
2022/10/22 03:13:33;;;;;;;5.40;3.10;;;;;;;;;;5053090;28;20550;-78
2022/10/22 03:16:37;;;;;;;7.97;3.50;;;;;;;;;;5076897;28;20179;-77
2022/10/22 03:19:41;;;;;;;4.97;3.30;;;;;;;;;;5064889;28;20175;-77
2022/10/22 03:22:45;;;;;;;4.73;3.33;;;;;;;;;;5064733;28;20179;-78
2022/10/22 03:25:50;;;;;;;5.33;3.57;;;;;;;;;;5065415;28;20519;-79
2022/10/22 03:28:54;;;;;;;6.63;4.03;;;;;;;;;;5042533;28;20511;-78
2022/10/22 03:31:58;;;;;;;6.97;3.57;;;;;;;;;;5052339;28;20579;-78
2022/10/22 03:35:04;;;;;;;6.03;3.60;;;;;;;;;;5064822;28;20179;-78
2022/10/22 03:38:08;;;;;;;4.93;3.97;;;;;;;;;;5077177;28;20176;-78
2022/10/22 03:41:12;;;;;;;6.57;3.87;;;;;;;;;;5064325;28;20215;-78
2022/10/22 03:44:17;;;;;;;4.43;3.43;;;;;;;;;;5041295;28;20175;-77
2022/10/22 03:47:23;;;;;;;5.33;4.00;;;;;;;;;;5052908;28;20179;-78
2022/10/22 03:50:27;;;;;;;4.50;3.90;;;;;;;;;;5077582;28;20204;-78
2022/10/22 03:53:31;;;;;;;7.27;3.83;;;;;;;;;;5053262;28;20179;-78
2022/10/22 03:56:35;;;;;;;7.20;3.87;;;;;;;;;;5064189;28;20180;-78
2022/10/22 03:59:42;;;;;;;5.70;3.57;;;;;;;;;;5041340;28;20176;-77
2022/10/22 04:02:47;;;;;;;5.10;3.37;;;;;;;;;;5076364;28;20176;-77
2022/10/22 04:05:50;;;;;;;5.77;3.60;;;;;;;;;;5052184;28;20179;-77
2022/10/22 04:08:55;;;;;;;3.83;3.43;;;;;;;;;;5063377;28;20630;-77
2022/10/22 04:12:00;;;;;;;6.07;3.40;;;;;;;;;;5051465;28;20218;-77
2022/10/22 04:15:04;;;;;;;5.93;3.13;;;;;;;;;;5073791;22;20228;-82
2022/10/22 04:18:09;;;;;;;3.97;2.97;;;;;;;;;;5068034;28;20514;-82
2022/10/22 04:21:16;;;;;;;4.23;2.53;;;;;;;;;;5058935;28;20570;-80
2022/10/22 04:24:20;;;;;;;8.33;2.20;;;;;;;;;;5060468;28;20172;-81
2022/10/22 04:27:25;;;;;;;4.33;2.13;;;;;;;;;;5048298;28;20196;-80
2022/10/22 04:30:29;;;;;;;2.73;1.80;;;;;;;;;;5036384;28;20207;-82
2022/10/22 04:33:33;;;;;;;3.43;2.00;;;;;;;;;;5036866;28;20184;-81
2022/10/22 04:36:37;;;;;;;4.80;1.70;;;;;;;;;;5037264;28;20176;-81
2022/10/22 04:39:41;;;;;;;5.90;1.97;;;;;;;;;;5036493;28;20176;-82
2022/10/22 04:42:46;;;;;;;4.33;1.47;;;;;;;;;;5048258;28;20199;-81
2022/10/22 04:45:50;;;;;;;2.43;1.43;;;;;;;;;;5048769;28;20180;-80
2022/10/22 04:48:54;;;;;;;2.43;1.27;;;;;;;;;;5048769;28;20184;-80
2022/10/22 04:51:58;;;;;;;3.07;1.40;;;;;;;;;;5047812;28;20207;-80
2022/10/22 04:55:03;;;;;;;2.20;1.60;;;;;;;;;;5059830;28;20180;-80
2022/10/22 04:58:07;;;;;;;2.80;1.50;;;;;;;;;;5061143;28;20176;-80
2022/10/22 05:01:14;;;;;;;2.87;1.73;;;;;;;;;;5048373;28;20216;-80
2022/10/22 05:04:19;;;;;;;3.63;1.70;;;;;;;;;;5048284;28;20550;-80
2022/10/22 05:07:23;;;;;;;2.30;1.60;;;;;;;;;;5070753;28;20650;-80
2022/10/22 05:10:27;;;;;;;2.67;1.90;;;;;;;;;;5059561;28;20666;-81
2022/10/22 05:13:31;;;;;;;3.93;2.27;;;;;;;;;;5060161;28;20633;-82
2022/10/22 05:16:37;;;;;;;4.37;2.10;;;;;;;;;;5048691;28;20184;-80
2022/10/22 05:19:40;;;;;;;2.33;2.00;;;;;;;;;;5071370;28;20192;-80
2022/10/22 05:22:45;;;;;;;10.80;2.23;;;;;;;;;;5049029;28;20180;-81
2022/10/22 05:25:49;;;;;;;3.27;2.20;;;;;;;;;;5049911;28;20184;-81
2022/10/22 05:28:54;;;;;;;10.43;3.90;;;;;;;;;;5060620;28;20176;-80
2022/10/22 05:31:58;;;;;;;4.97;3.13;;;;;;;;;;5072666;28;20216;-79
2022/10/22 05:35:03;;;;;;;5.23;2.70;;;;;;;;;;5056113;28;20185;-81
2022/10/22 05:38:07;;;;;;;2.90;2.50;;;;;;;;;;5032234;28;20192;-80
2022/10/22 05:41:14;;;;;;;3.07;2.63;;;;;;;;;;5037407;28;20212;-79
2022/10/22 05:44:18;;;;;;;5.33;2.60;;;;;;;;;;5037733;28;20180;-80
2022/10/22 05:47:22;;;;;;;6.33;3.63;;;;;;;;;;5048728;28;20524;-80
2022/10/22 05:50:26;;;;;;;10.67;5.47;;;;;;;;;;5025983;28;20646;-80
2022/10/22 05:53:32;;;;;;;4.47;3.00;;;;;;;;;;5037451;28;20184;-81
2022/10/22 05:56:37;;;;;;;5.83;3.00;;;;;;;;;;5041248;28;20184;-81
2022/10/22 05:59:41;;;;;;;6.70;3.03;;;;;;;;;;5030314;28;20188;-80
2022/10/22 06:02:49;;;;;;;3.97;3.27;;;;;;;;;;5040003;28;20188;-80
2022/10/22 06:05:53;;;;;;;2.90;2.20;;;;;;;;;;5029757;28;20181;-80
2022/10/22 06:09:01;;;;;;;3.50;2.50;;;;;;;;;;5052317;28;20610;-80
2022/10/22 06:12:09;;;;;;;2.97;2.10;;;;;;;;;;5051654;28;20204;-79
2022/10/22 06:15:16;;;;;;;4.23;1.37;;;;;;;;;;5040515;28;20204;-80
2022/10/22 06:18:21;;;;;;;3.57;1.53;;;;;;;;;;5064420;28;20200;-80
2022/10/22 06:21:25;;;;;;;1.90;1.50;;;;;;;;;;5040465;28;20666;-80
2022/10/22 06:24:30;;;;;;;2.33;1.03;;;;;;;;;;5064219;28;20184;-81
2022/10/22 06:27:34;;;;;;;2.67;1.70;;;;;;;;;;5029691;28;20534;-79
2022/10/22 06:30:38;;;;;;;2.50;1.60;;;;;;;;;;5040029;28;20227;-79
2022/10/22 06:33:42;;;;;;;5.23;1.70;;;;;;;;;;5028956;28;20184;-79
2022/10/22 06:36:46;;;;;;;2.00;1.27;;;;;;;;;;5040701;28;20516;-80
2022/10/22 06:39:50;;;;;;;1.60;1.30;;;;;;;;;;5029423;28;20199;-79
2022/10/22 06:42:55;;;;;;;6.37;1.50;;;;;;;;;;5040396;28;20662;-80
2022/10/22 06:46:01;;;;;;;3.27;2.13;;;;;;;;;;5048542;28;20184;-79
2022/10/22 06:49:05;;;;;;;2.33;2.13;;;;;;;;;;5038593;28;20173;-80
2022/10/22 06:52:10;;;;;;;5.93;2.73;;;;;;;;;;5051459;28;20211;-81
2022/10/22 06:55:14;;;;;;;4.20;3.80;;;;;;;;;;5033583;28;20188;-80
2022/10/22 06:58:18;;;;;;;4.53;2.23;;;;;;;;;;5045821;28;20180;-82
2022/10/22 07:01:28;;;;;;;4.20;1.80;;;;;;;;;;5056193;28;20208;-81
2022/10/22 07:04:33;;;;;;;3.80;2.90;;;;;;;;;;5045267;28;20189;-81
2022/10/22 07:07:37;;;;;;;3.60;2.30;;;;;;;;;;5056303;28;20195;-80
2022/10/22 07:10:41;;;;;;;3.20;2.03;;;;;;;;;;5043828;28;20219;-82
2022/10/22 07:13:46;;;;;;;6.40;2.00;;;;;;;;;;5044540;28;20204;-81
2022/10/22 07:16:50;;;;;;;4.50;2.10;;;;;;;;;;5044271;28;20172;-82
2022/10/22 07:19:54;;;;;;;24.90;19.93;;;;;;;;;;5032920;28;20184;-82
2022/10/22 07:22:58;;;;;;;15.33;13.73;;;;;;;;;;5043179;28;20534;-80
2022/10/22 07:26:06;;;;;;;9.17;8.13;;;;;;;;;;5042764;28;20200;-80
2022/10/22 07:29:10;;;;;;;4.30;3.93;;;;;;;;;;5042737;28;20180;-81
2022/10/22 07:32:14;;;;;;;4.43;2.70;;;;;;;;;;5042224;28;20224;-80
2022/10/22 07:35:18;;;;;;;5.30;3.10;;;;;;;;;;5031093;28;20176;-82
2022/10/22 07:38:22;;;;;;;3.60;1.60;;;;;;;;;;5042848;28;20184;-80
2022/10/22 07:41:28;;;;;;;5.93;1.60;;;;;;;;;;5031200;28;20212;-80
2022/10/22 07:44:33;;;;;;;1.67;1.20;;;;;;;;;;5030589;28;20184;-81
2022/10/22 07:47:37;;;;;;;4.17;1.93;;;;;;;;;;5050109;28;20512;-78
2022/10/22 07:50:41;;;;;;;1.53;1.43;;;;;;;;;;5048623;28;20694;-78
2022/10/22 07:53:45;;;;;;;4.20;2.47;;;;;;;;;;5048760;28;20180;-78
2022/10/22 07:56:49;;;;;;;5.53;2.73;;;;;;;;;;5049023;28;20188;-78
2022/10/22 07:59:55;;;;;;;4.47;1.50;;;;;;;;;;5048614;28;20184;-77
2022/10/22 08:02:59;;;;;;;3.63;1.40;;;;;;;;;;5060349;28;20180;-78
2022/10/22 08:06:04;;;;;;;1.40;1.00;;;;;;;;;;5047074;28;20200;-79
2022/10/22 08:09:08;;;;;;;1.10;0.87;;;;;;;;;;5035490;28;20185;-78
2022/10/22 08:12:12;;;;;;;2.00;1.20;;;;;;;;;;5058761;28;20567;-79
2022/10/22 08:15:16;;;;;;;2.27;1.83;;;;;;;;;;5036677;28;20213;-79
2022/10/22 08:18:21;;;;;;;5.83;5.23;;;;;;;;;;5025822;28;20185;-77
2022/10/22 08:21:25;;;;;;;6.27;5.03;;;;;;;;;;5026353;28;20216;-79
2022/10/22 08:24:29;;;;;;;6.23;3.87;;;;;;;;;;5015289;28;20176;-79
2022/10/22 08:27:33;;;;;;;2.87;1.93;;;;;;;;;;5015982;28;20177;-77
2022/10/22 08:30:39;;;;;;;2.50;1.47;;;;;;;;;;5023048;28;20227;-79
2022/10/22 08:33:43;;;;;;;2.77;1.60;;;;;;;;;;5057861;28;20184;-78
2022/10/22 08:36:47;;;;;;;7.83;2.43;;;;;;;;;;5045371;28;20180;-79
2022/10/22 08:39:51;;;;;;;1.93;1.20;;;;;;;;;;5045247;28;20184;-79
2022/10/22 08:43:04;;;;;;;2.23;1.00;;;;;;;;;;5059452;28;20181;-79
2022/10/22 08:46:32;;;;;;;2.20;0.70;;;;;;;;;;5035474;28;20188;-78
2022/10/22 08:49:41;;;;;;;2.57;1.00;;;;;;;;;;5046326;28;20180;-79
2022/10/22 08:52:50;;;;;;;0.90;0.90;;;;;;;;;;5048216;28;20180;-80
2022/10/22 08:55:56;;;;;;;2.17;1.03;;;;;;;;;;5005522;28;20200;-78
2022/10/22 08:59:07;;;;;;;2.10;1.30;;;;;;;;;;5034006;28;20652;-78
2022/10/22 09:02:33;;;;;;;5.70;5.20;;;;;;;;;;5030138;28;20216;-78
2022/10/22 09:05:56;;;;;;;1.93;1.07;;;;;;;;;;5055757;28;20180;-78
2022/10/22 09:09:08;;;;;;;2.90;1.47;;;;;;;;;;5041631;28;20209;-79
2022/10/22 09:12:16;;;;;;;32.00;26.63;;;;;;;;;;5038902;28;20224;-79
2022/10/22 09:15:21;;;;;;;8.63;7.83;;;;;;;;;;5040069;28;20212;-79
2022/10/22 09:18:45;;;;;;;3.60;1.73;;;;;;;;;;5039496;28;20188;-80
2022/10/22 09:22:08;;;;;;;2.70;1.50;;;;;;;;;;5025415;28;20209;-79
2022/10/22 09:25:13;;;;;;;6.70;0.87;;;;;;;;;;5025995;28;20185;-79
2022/10/22 09:28:17;;;;;;;2.57;0.97;;;;;;;;;;5030732;28;20181;-79
2022/10/22 09:31:21;;;;;;;1.87;0.80;;;;;;;;;;5028296;28;20215;-79
2022/10/22 09:34:28;;;;;;;1.63;0.90;;;;;;;;;;5022374;28;20193;-78
2022/10/22 09:37:32;;;;;;;3.47;0.83;;;;;;;;;;5037786;28;20184;-80
2022/10/22 09:40:47;;;;;;;0.83;0.50;;;;;;;;;;5049132;28;20698;-79
2022/10/22 09:43:51;;;;;;;1.87;0.60;;;;;;;;;;5037274;28;20197;-79
2022/10/22 09:46:55;;;;;;;4.57;0.87;;;;;;;;;;5028538;28;20184;-81
2022/10/22 09:50:21;;;;;;;1.83;0.70;;;;;;;;;;5025539;28;20189;-81
2022/10/22 09:53:28;;;;;;;5.67;1.03;;;;;;;;;;5027129;28;20173;-77
2022/10/22 09:56:35;;;;;;;1.60;0.67;;;;;;;;;;5024816;28;20209;-79
2022/10/22 09:59:41;;;;;;;3.10;0.70;;;;;;;;;;5032582;28;20189;-80
2022/10/22 10:02:45;;;;;;;0.73;0.57;;;;;;;;;;5038333;28;20189;-82
2022/10/22 10:05:56;;;;;;;3.70;0.87;;;;;;;;;;5044466;28;20185;-82
2022/10/22 10:09:04;;;;;;;1.53;0.60;;;;;;;;;;5016832;28;20201;-83
2022/10/22 10:12:34;;;;;;;2.47;1.90;;;;;;;;;;5027354;28;20556;-82
2022/10/22 10:15:44;;;;;;;3.53;3.17;;;;;;;;;;5026180;28;20212;-80
2022/10/22 10:19:00;;;;;;;1.90;1.30;;;;;;;;;;5025215;28;20180;-81
2022/10/22 10:22:29;;;;;;;2.00;0.97;;;;;;;;;;5036851;28;20212;-82
2022/10/22 10:25:46;;;;;;;1.23;0.70;;;;;;;;;;5042578;28;20191;-81
2022/10/22 10:29:09;;;;;;;1.50;1.10;;;;;;;;;;5039710;28;20197;-80
2022/10/22 10:32:35;;;;;;;4.10;0.80;;;;;;;;;;5027437;28;20217;-81
2022/10/22 10:35:55;;;;;;;4.70;0.70;;;;;;;;;;5023223;28;20189;-81
2022/10/22 10:39:23;;;;;;;2.60;1.00;;;;;;;;;;5021670;28;20644;-80
2022/10/22 10:42:32;;;;;;;3.03;0.80;;;;;;;;;;5031817;28;20210;-78
2022/10/22 10:45:50;;;;;;;2.80;0.60;;;;;;;;;;5051449;28;20178;-79
2022/10/22 10:48:58;;;;;;;3.10;0.70;;;;;;;;;;5038870;28;20196;-80
2022/10/22 10:52:45;;;;;;;1.07;0.70;;;;;;;;;;5032193;28;20224;-78
2022/10/22 10:56:23;;;;;;;1.03;0.70;;;;;;;;;;4975314;28;20192;-79
2022/10/22 10:59:39;;;;;;;1.20;0.70;;;;;;;;;;5047423;28;20180;-80
2022/10/22 11:02:59;;;;;;;0.87;0.70;;;;;;;;;;5047776;28;20176;-81
2022/10/22 11:06:11;;;;;;;0.87;0.70;;;;;;;;;;5038911;28;20184;-82
2022/10/22 11:09:23;;;;;;;1.57;0.80;;;;;;;;;;5048469;28;20192;-81
2022/10/22 11:12:35;;;;;;;1.00;0.73;;;;;;;;;;5046668;28;20683;-80
2022/10/22 11:15:42;;;;;;;1.97;0.70;;;;;;;;;;5024085;28;20212;-81
2022/10/22 11:18:53;;;;;;;2.10;0.70;;;;;;;;;;5025138;28;20192;-81
2022/10/22 11:22:20;;;;;;;2.83;0.97;;;;;;;;;;5047438;28;20212;-81
2022/10/22 11:25:30;;;;;;;0.60;0.53;;;;;;;;;;5047805;28;20176;-80
2022/10/22 11:28:44;;;;;;;2.00;1.20;;;;;;;;;;5035942;28;20184;-81
2022/10/22 11:31:53;;;;;;;2.17;0.77;;;;;;;;;;5035780;28;20556;-81
2022/10/22 11:35:05;;;;;;;2.60;0.80;;;;;;;;;;5037512;28;20180;-81
2022/10/22 11:38:14;;;;;;;2.30;1.00;;;;;;;;;;5037322;28;20196;-80
2022/10/22 11:41:23;;;;;;;2.03;0.83;;;;;;;;;;5037974;28;20562;-79
2022/10/22 11:44:29;;;;;;;4.37;1.10;;;;;;;;;;5029456;28;20181;-78
2022/10/22 11:47:50;;;;;;;1.03;0.87;;;;;;;;;;5050425;28;20544;-79
2022/10/22 11:50:59;;;;;;;1.70;1.00;;;;;;;;;;5049528;28;20224;-79
2022/10/22 11:54:22;;;;;;;1.37;0.90;;;;;;;;;;5047767;28;20177;-79
2022/10/22 11:57:36;;;;;;;3.07;1.10;;;;;;;;;;5029089;28;20188;-78
2022/10/22 12:00:46;;;;;;;2.67;1.07;;;;;;;;;;5030038;28;20220;-79
2022/10/22 12:04:11;;;;;;;1.07;0.83;;;;;;;;;;5018544;28;20177;-79
2022/10/22 12:07:56;;;;;;;1.53;1.00;;;;;;;;;;5029257;28;20180;-79
2022/10/22 12:11:09;;;;;;;1.00;0.90;;;;;;;;;;5006712;28;20221;-80
2022/10/22 12:14:13;;;;;;;1.23;0.97;;;;;;;;;;5028645;28;20168;-79
2022/10/22 12:17:20;;;;;;;5.57;1.03;;;;;;;;;;5027954;28;20640;-80
2022/10/22 12:20:25;;;;;;;1.27;1.13;;;;;;;;;;5016780;28;20185;-80
2022/10/22 12:23:31;;;;;;;3.90;1.20;;;;;;;;;;5028885;28;20616;-80
2022/10/22 12:26:36;;;;;;;2.53;1.10;;;;;;;;;;5017180;28;20173;-80
2022/10/22 12:29:40;;;;;;;13.63;10.50;;;;;;;;;;5017180;28;20181;-79
2022/10/22 12:32:44;;;;;;;65.43;41.43;;;;;;;;;;5017264;28;20208;-79
2022/10/22 12:35:52;;;;;;;7.53;4.23;;;;;;;;;;5015392;28;20204;-79
2022/10/22 12:38:59;;;;;;;2.23;1.33;;;;;;;;;;5047235;22;20164;-79
2022/10/22 12:42:05;;;;;;;2.03;1.20;;;;;;;;;;5089788;28;20214;-76
2022/10/22 12:45:09;;;;;;;4.73;1.10;;;;;;;;;;5076893;28;20200;-77
2022/10/22 12:48:33;;;;;;;1.30;0.93;;;;;;;;;;5049210;28;20203;-76
2022/10/22 12:51:37;;;;;;;2.73;2.10;;;;;;;;;;5072418;28;20226;-75
2022/10/22 12:54:41;;;;;;;2.10;1.07;;;;;;;;;;5069567;28;20286;-77
2022/10/22 12:57:47;;;;;;;1.97;1.03;;;;;;;;;;5093399;28;20174;-76
2022/10/22 13:00:57;;;;;;;2.17;1.30;;;;;;;;;;5084739;28;20221;-76
2022/10/22 13:04:36;;;;;;;3.37;3.07;;;;;;;;;;5092624;28;20174;-77
2022/10/22 13:07:43;;;;;;;2.77;1.60;;;;;;;;;;5105340;28;20174;-77
2022/10/22 13:10:53;;;;;;;2.53;1.60;;;;;;;;;;5105240;28;20218;-76
2022/10/22 13:14:02;;;;;;;1.70;1.60;;;;;;;;;;5089269;28;20211;-76
2022/10/22 13:17:36;;;;;;;3.17;2.60;;;;;;;;;;5069192;28;20191;-76
2022/10/22 13:21:01;;;;;;;3.67;1.67;;;;;;;;;;5064772;28;20570;-76
2022/10/22 13:24:21;;;;;;;2.20;1.20;;;;;;;;;;5076241;28;20176;-76
2022/10/22 13:27:27;;;;;;;3.03;1.20;;;;;;;;;;5064991;28;20180;-77
2022/10/22 13:30:34;;;;;;;2.50;1.00;;;;;;;;;;5111985;28;20194;-77
2022/10/22 13:33:40;;;;;;;3.60;0.93;;;;;;;;;;5105085;28;20201;-76
2022/10/22 13:36:45;;;;;;;3.03;1.27;;;;;;;;;;5104863;28;20194;-76
2022/10/22 13:39:49;;;;;;;1.07;0.80;;;;;;;;;;5117217;28;20675;-76
2022/10/22 13:42:53;;;;;;;4.73;0.90;;;;;;;;;;5117304;28;20194;-75
2022/10/22 13:45:58;;;;;;;2.70;1.33;;;;;;;;;;5117676;28;20182;-76
2022/10/22 13:49:03;;;;;;;2.53;1.10;;;;;;;;;;5093025;28;20178;-75
2022/10/22 13:52:34;;;;;;;5.50;1.00;;;;;;;;;;5116863;28;20256;-75
2022/10/22 13:55:38;;;;;;;7.07;1.20;;;;;;;;;;5117311;28;20174;-74
2022/10/22 13:58:43;;;;;;;11.67;7.07;;;;;;;;;;5104653;28;20629;-74
2022/10/22 14:01:48;;;;;;;5.07;4.57;;;;;;;;;;5116637;28;20213;-75
2022/10/22 14:04:52;;;;;;;9.27;1.87;;;;;;;;;;5117064;28;20182;-74
2022/10/22 14:07:58;;;;;;;5.30;2.20;;;;;;;;;;5104010;28;20181;-74
2022/10/22 14:11:02;;;;;;;3.20;1.30;;;;;;;;;;5116524;28;20683;-74
2022/10/22 14:14:07;;;;;;;2.00;1.10;;;;;;;;;;5116496;28;20198;-74
2022/10/22 14:17:15;;;;;;;2.03;0.90;;;;;;;;;;5104183;28;20170;-74
2022/10/22 14:20:27;;;;;;;1.50;1.00;;;;;;;;;;5103927;28;20174;-74
2022/10/22 14:23:34;;;;;;;4.73;1.30;;;;;;;;;;5092410;28;20174;-75
2022/10/22 14:26:38;;;;;;;2.17;0.90;;;;;;;;;;5101447;28;20198;-73
2022/10/22 14:29:42;;;;;;;3.53;1.10;;;;;;;;;;5075537;28;20527;-74
2022/10/22 14:32:47;;;;;;;4.63;0.97;;;;;;;;;;5076157;28;20208;-74
2022/10/22 14:35:51;;;;;;;3.00;1.40;;;;;;;;;;5075641;28;20199;-75
2022/10/22 14:38:55;;;;;;;2.57;1.00;;;;;;;;;;5063034;28;20195;-75
2022/10/22 14:41:59;;;;;;;6.20;1.10;;;;;;;;;;5051489;28;20562;-76
2022/10/22 14:45:04;;;;;;;7.10;1.07;;;;;;;;;;5063209;28;20184;-76
2022/10/22 14:48:08;;;;;;;4.77;1.23;;;;;;;;;;5051973;28;20183;-76
2022/10/22 14:51:14;;;;;;;4.10;0.90;;;;;;;;;;5062862;28;20570;-76
2022/10/22 14:54:18;;;;;;;4.97;0.80;;;;;;;;;;5075300;28;20207;-77
2022/10/22 14:57:22;;;;;;;2.10;1.07;;;;;;;;;;5074974;28;20179;-76
2022/10/22 15:00:26;;;;;;;1.27;0.90;;;;;;;;;;5074892;28;20184;-76
2022/10/22 15:03:30;;;;;;;6.07;1.47;;;;;;;;;;5040186;28;20610;-75
2022/10/22 15:06:38;;;;;;;3.43;1.33;;;;;;;;;;5051031;28;20175;-75
2022/10/22 15:09:42;;;;;;;3.50;1.20;;;;;;;;;;5062592;28;20187;-75
2022/10/22 15:12:46;;;;;;;2.13;1.20;;;;;;;;;;5074815;28;20195;-75
2022/10/22 15:15:50;;;;;;;1.37;1.27;;;;;;;;;;5074558;28;20523;-75
2022/10/22 15:18:56;;;;;;;6.87;1.20;;;;;;;;;;5074902;28;20623;-75
2022/10/22 15:22:00;;;;;;;5.13;1.33;;;;;;;;;;5061958;28;20214;-76
2022/10/22 15:25:07;;;;;;;4.80;1.27;;;;;;;;;;5061979;28;20191;-75
2022/10/22 15:28:11;;;;;;;6.57;1.00;;;;;;;;;;5061550;28;20175;-75
2022/10/22 15:31:15;;;;;;;3.90;0.90;;;;;;;;;;5050785;28;20211;-74
2022/10/22 15:34:25;;;;;;;2.37;1.00;;;;;;;;;;5062335;28;20207;-77
2022/10/22 15:37:29;;;;;;;1.43;0.93;;;;;;;;;;5062086;28;20195;-76
2022/10/22 15:40:33;;;;;;;1.37;0.90;;;;;;;;;;5055270;28;20199;-76
2022/10/22 15:43:37;;;;;;;2.50;0.90;;;;;;;;;;5074386;28;20194;-80
2022/10/22 15:46:41;;;;;;;2.63;0.87;;;;;;;;;;5079622;28;20190;-76
2022/10/22 15:49:46;;;;;;;1.20;0.90;;;;;;;;;;5059274;28;20199;-76
2022/10/22 15:52:50;;;;;;;1.53;0.83;;;;;;;;;;5078263;28;20218;-76
2022/10/22 15:55:55;;;;;;;0.80;0.80;;;;;;;;;;5080595;28;20187;-76
2022/10/22 15:59:04;;;;;;;6.90;1.00;;;;;;;;;;5072048;28;20183;-76
2022/10/22 16:02:10;;;;;;;3.00;1.40;;;;;;;;;;5090056;28;20215;-75
2022/10/22 16:05:14;;;;;;;2.27;1.10;;;;;;;;;;5075880;28;20186;-75
2022/10/22 16:08:20;;;;;;;2.57;1.40;;;;;;;;;;5081233;28;20175;-76
2022/10/22 16:11:24;;;;;;;4.33;1.00;;;;;;;;;;5069878;28;20210;-76
2022/10/22 16:14:28;;;;;;;5.17;1.10;;;;;;;;;;5081693;28;20211;-76
2022/10/22 16:17:33;;;;;;;2.23;1.20;;;;;;;;;;5069705;28;20178;-76
2022/10/22 16:20:38;;;;;;;3.17;1.10;;;;;;;;;;5081422;28;20213;-76
2022/10/22 16:23:43;;;;;;;2.30;1.13;;;;;;;;;;5081483;28;20641;-76
2022/10/22 16:26:48;;;;;;;3.30;1.17;;;;;;;;;;5081538;28;20502;-76
2022/10/22 16:29:52;;;;;;;3.63;1.20;;;;;;;;;;5081437;28;20634;-76
2022/10/22 16:32:56;;;;;;;1.40;1.30;;;;;;;;;;5093403;28;20676;-76
2022/10/22 16:36:00;;;;;;;6.03;1.30;;;;;;;;;;5093662;28;20196;-76
2022/10/22 16:39:05;;;;;;;2.30;1.30;;;;;;;;;;5069216;28;20668;-76
2022/10/22 16:42:10;;;;;;;1.80;1.30;;;;;;;;;;5069608;28;20219;-76
2022/10/22 16:45:14;;;;;;;2.07;1.33;;;;;;;;;;5080908;28;20633;-76
2022/10/22 16:48:18;;;;;;;9.03;1.60;;;;;;;;;;5069641;28;20522;-76
2022/10/22 16:51:24;;;;;;;4.57;1.37;;;;;;;;;;5072231;28;20668;-76
2022/10/22 16:54:28;;;;;;;2.33;1.20;;;;;;;;;;5070084;28;20203;-76
2022/10/22 16:57:32;;;;;;;1.57;1.10;;;;;;;;;;5065470;28;20183;-76
2022/10/22 17:00:36;;;;;;;2.77;1.20;;;;;;;;;;5063149;28;20187;-76
2022/10/22 17:03:40;;;;;;;5.27;1.50;;;;;;;;;;5082952;28;20178;-76
2022/10/22 17:06:45;;;;;;;2.63;1.20;;;;;;;;;;5054826;28;20190;-76
2022/10/22 17:09:49;;;;;;;3.67;1.20;;;;;;;;;;5094090;28;20182;-78
2022/10/22 17:12:53;;;;;;;3.17;1.40;;;;;;;;;;5071653;28;20175;-78
2022/10/22 17:16:07;;;;;;;1.87;1.63;;;;;;;;;;5059384;28;20179;-78
2022/10/22 17:19:14;;;;;;;2.80;1.97;;;;;;;;;;5059040;28;20179;-78
2022/10/22 17:22:18;;;;;;;3.27;1.77;;;;;;;;;;5059058;28;20550;-77
2022/10/22 17:25:34;;;;;;;5.23;1.97;;;;;;;;;;5070146;28;20186;-77
2022/10/22 17:28:38;;;;;;;5.67;2.07;;;;;;;;;;5081301;28;20168;-78
2022/10/22 17:31:42;;;;;;;3.10;1.80;;;;;;;;;;5074274;28;20214;-78
2022/10/22 17:34:46;;;;;;;4.97;1.97;;;;;;;;;;5039582;28;20219;-78
2022/10/22 17:37:50;;;;;;;6.60;2.10;;;;;;;;;;5057213;28;20653;-78
2022/10/22 17:40:56;;;;;;;7.07;2.33;;;;;;;;;;5039802;28;20214;-78
2022/10/22 17:44:02;;;;;;;5.33;2.10;;;;;;;;;;5061740;28;20176;-78
2022/10/22 17:47:06;;;;;;;7.63;2.00;;;;;;;;;;5073541;28;20550;-76
2022/10/22 17:50:10;;;;;;;4.83;1.90;;;;;;;;;;5077078;28;20183;-76
2022/10/22 17:53:14;;;;;;;4.23;2.17;;;;;;;;;;5082847;28;20186;-79
2022/10/22 17:56:24;;;;;;;9.67;2.60;;;;;;;;;;5099925;28;20175;-77
2022/10/22 17:59:28;;;;;;;5.03;2.50;;;;;;;;;;5078008;28;20179;-78
2022/10/22 18:02:32;;;;;;;7.30;2.63;;;;;;;;;;5066682;28;20686;-78
2022/10/22 18:05:36;;;;;;;2.90;2.23;;;;;;;;;;5080725;28;20170;-78
2022/10/22 18:08:41;;;;;;;2.37;2.07;;;;;;;;;;5076650;28;20175;-77
2022/10/22 18:11:50;;;;;;;3.93;2.00;;;;;;;;;;5072510;28;20594;-77
2022/10/22 18:14:54;;;;;;;3.57;1.97;;;;;;;;;;5061697;28;20203;-77
2022/10/22 18:17:58;;;;;;;6.00;2.03;;;;;;;;;;5072783;28;20175;-79
2022/10/22 18:21:03;;;;;;;2.60;2.00;;;;;;;;;;5072281;28;20218;-77
2022/10/22 18:24:08;;;;;;;6.00;2.00;;;;;;;;;;5072851;28;20178;-77
2022/10/22 18:27:12;;;;;;;3.33;2.07;;;;;;;;;;5084114;28;20190;-77
2022/10/22 18:30:17;;;;;;;10.50;2.00;;;;;;;;;;5096236;28;20175;-77
2022/10/22 18:33:23;;;;;;;6.33;1.80;;;;;;;;;;5083470;28;20179;-76
2022/10/22 18:36:27;;;;;;;5.70;1.80;;;;;;;;;;5083936;28;20202;-77
2022/10/22 18:39:30;;;;;;;3.13;1.80;;;;;;;;;;5072004;28;20207;-77
2022/10/22 18:42:35;;;;;;;4.77;1.83;;;;;;;;;;5082753;28;20211;-76
2022/10/22 18:45:44;;;;;;;5.40;2.03;;;;;;;;;;5057693;28;20552;-75